sensor_id;sensor_type;location;lat;lon;timestamp;pressure;altitude;pressure_sealevel;temperature;humidity
55032;BME280;40928;51.076;7.950;2022-07-03T00:01:46;97267.34;;;14.80;74.68
55032;BME280;40928;51.076;7.950;2022-07-03T00:04:12;97263.34;;;14.82;74.52
55032;BME280;40928;51.076;7.950;2022-07-03T00:06:37;97259.81;;;14.82;74.56
55032;BME280;40928;51.076;7.950;2022-07-03T00:09:04;97265.50;;;14.85;74.68
55032;BME280;40928;51.076;7.950;2022-07-03T00:11:30;97269.56;;;14.88;74.61
55032;BME280;40928;51.076;7.950;2022-07-03T00:13:56;97267.13;;;14.91;74.43
55032;BME280;40928;51.076;7.950;2022-07-03T00:16:22;97261.75;;;14.91;74.58
55032;BME280;40928;51.076;7.950;2022-07-03T00:18:47;97255.59;;;14.91;74.73
55032;BME280;40928;51.076;7.950;2022-07-03T00:21:19;97264.22;;;14.93;74.66
55032;BME280;40928;51.076;7.950;2022-07-03T00:23:52;97266.63;;;14.95;75.03
55032;BME280;40928;51.076;7.950;2022-07-03T00:26:20;97259.91;;;14.97;75.23
55032;BME280;40928;51.076;7.950;2022-07-03T00:28:46;97269.03;;;14.96;75.37
55032;BME280;40928;51.076;7.950;2022-07-03T00:31:13;97252.13;;;14.96;75.18
55032;BME280;40928;51.076;7.950;2022-07-03T00:33:39;97251.84;;;14.97;75.33
55032;BME280;40928;51.076;7.950;2022-07-03T00:36:06;97247.00;;;14.94;75.34
55032;BME280;40928;51.076;7.950;2022-07-03T00:38:32;97248.59;;;14.90;75.59
55032;BME280;40928;51.076;7.950;2022-07-03T00:41:00;97241.59;;;14.89;75.91
55032;BME280;40928;51.076;7.950;2022-07-03T00:43:26;97241.03;;;14.87;76.51
55032;BME280;40928;51.076;7.950;2022-07-03T00:45:53;97232.94;;;14.82;76.42
55032;BME280;40928;51.076;7.950;2022-07-03T00:48:20;97234.00;;;14.81;76.76
55032;BME280;40928;51.076;7.950;2022-07-03T00:50:50;97236.19;;;14.79;76.84
55032;BME280;40928;51.076;7.950;2022-07-03T00:53:28;97227.81;;;14.75;76.90
55032;BME280;40928;51.076;7.950;2022-07-03T00:55:55;97233.97;;;14.70;77.33
55032;BME280;40928;51.076;7.950;2022-07-03T00:58:21;97235.78;;;14.65;77.50
55032;BME280;40928;51.076;7.950;2022-07-03T01:00:51;97233.91;;;14.65;77.63
55032;BME280;40928;51.076;7.950;2022-07-03T01:03:19;97228.78;;;14.64;77.60
55032;BME280;40928;51.076;7.950;2022-07-03T01:05:49;97232.78;;;14.56;77.90
55032;BME280;40928;51.076;7.950;2022-07-03T01:08:37;97225.47;;;14.46;78.17
55032;BME280;40928;51.076;7.950;2022-07-03T01:11:28;97217.06;;;14.32;78.81
55032;BME280;40928;51.076;7.950;2022-07-03T01:17:00;97218.59;;;14.23;79.04
55032;BME280;40928;51.076;7.950;2022-07-03T01:19:41;97210.47;;;14.18;79.38
55032;BME280;40928;51.076;7.950;2022-07-03T01:30:26;97211.75;;;14.05;79.78
55032;BME280;40928;51.076;7.950;2022-07-03T01:33:17;97213.59;;;13.99;79.81
55032;BME280;40928;51.076;7.950;2022-07-03T01:36:09;97211.63;;;13.94;80.30
55032;BME280;40928;51.076;7.950;2022-07-03T01:38:36;97218.56;;;13.85;80.70
55032;BME280;40928;51.076;7.950;2022-07-03T01:41:05;97218.25;;;13.81;80.69
55032;BME280;40928;51.076;7.950;2022-07-03T01:43:33;97219.31;;;13.80;80.61
55032;BME280;40928;51.076;7.950;2022-07-03T01:46:00;97217.13;;;13.77;80.76
55032;BME280;40928;51.076;7.950;2022-07-03T01:48:28;97214.41;;;13.72;80.77
55032;BME280;40928;51.076;7.950;2022-07-03T01:50:59;97207.41;;;13.71;80.62
55032;BME280;40928;51.076;7.950;2022-07-03T01:53:27;97210.31;;;13.64;80.72
55032;BME280;40928;51.076;7.950;2022-07-03T01:55:59;97212.09;;;13.53;81.61
55032;BME280;40928;51.076;7.950;2022-07-03T01:58:24;97204.56;;;13.50;81.49
55032;BME280;40928;51.076;7.950;2022-07-03T02:01:00;97206.13;;;13.46;81.49
55032;BME280;40928;51.076;7.950;2022-07-03T02:03:30;97203.88;;;13.38;81.73
55032;BME280;40928;51.076;7.950;2022-07-03T02:06:05;97195.00;;;13.37;81.54
55032;BME280;40928;51.076;7.950;2022-07-03T02:08:47;97201.75;;;13.40;81.38
55032;BME280;40928;51.076;7.950;2022-07-03T02:11:16;97192.63;;;13.41;81.01
55032;BME280;40928;51.076;7.950;2022-07-03T02:16:36;97198.84;;;13.42;81.00
55032;BME280;40928;51.076;7.950;2022-07-03T02:19:10;97190.13;;;13.34;81.05
55032;BME280;40928;51.076;7.950;2022-07-03T02:21:40;97192.50;;;13.31;81.17
55032;BME280;40928;51.076;7.950;2022-07-03T02:24:26;97197.31;;;13.29;81.08
55032;BME280;40928;51.076;7.950;2022-07-03T02:27:05;97198.06;;;13.24;81.33
55032;BME280;40928;51.076;7.950;2022-07-03T02:29:41;97195.59;;;13.17;81.54
55032;BME280;40928;51.076;7.950;2022-07-03T02:32:11;97191.28;;;13.16;81.51
55032;BME280;40928;51.076;7.950;2022-07-03T02:34:38;97187.47;;;13.12;81.64
55032;BME280;40928;51.076;7.950;2022-07-03T02:37:10;97196.34;;;13.13;81.65
55032;BME280;40928;51.076;7.950;2022-07-03T02:39:49;97202.50;;;13.13;81.58
55032;BME280;40928;51.076;7.950;2022-07-03T02:45:11;97201.66;;;13.07;81.67
55032;BME280;40928;51.076;7.950;2022-07-03T02:50:07;97206.34;;;12.95;82.22
55032;BME280;40928;51.076;7.950;2022-07-03T02:52:42;97208.94;;;12.90;82.26
55032;BME280;40928;51.076;7.950;2022-07-03T02:57:39;97215.63;;;12.87;82.61
55032;BME280;40928;51.076;7.950;2022-07-03T03:00:07;97206.19;;;12.85;82.80
55032;BME280;40928;51.076;7.950;2022-07-03T03:02:55;97209.19;;;12.88;82.77
55032;BME280;40928;51.076;7.950;2022-07-03T03:05:31;97209.25;;;12.93;82.58
55032;BME280;40928;51.076;7.950;2022-07-03T03:10:50;97218.41;;;12.98;82.40
55032;BME280;40928;51.076;7.950;2022-07-03T03:13:16;97209.81;;;12.95;82.13
55032;BME280;40928;51.076;7.950;2022-07-03T03:15:58;97210.38;;;12.98;82.22
55032;BME280;40928;51.076;7.950;2022-07-03T03:18:28;97205.00;;;12.98;82.07
55032;BME280;40928;51.076;7.950;2022-07-03T03:20:59;97211.69;;;12.95;82.11
55032;BME280;40928;51.076;7.950;2022-07-03T03:23:42;97214.38;;;12.95;82.41
55032;BME280;40928;51.076;7.950;2022-07-03T03:26:09;97215.16;;;12.95;82.35
55032;BME280;40928;51.076;7.950;2022-07-03T03:28:35;97214.38;;;12.95;82.46
55032;BME280;40928;51.076;7.950;2022-07-03T03:31:00;97214.59;;;12.93;82.66
55032;BME280;40928;51.076;7.950;2022-07-03T03:33:26;97214.06;;;12.91;82.86
55032;BME280;40928;51.076;7.950;2022-07-03T03:35:52;97212.38;;;12.85;82.91
55032;BME280;40928;51.076;7.950;2022-07-03T03:38:18;97215.47;;;12.77;83.26
55032;BME280;40928;51.076;7.950;2022-07-03T03:40:44;97214.41;;;12.78;83.48
55032;BME280;40928;51.076;7.950;2022-07-03T03:43:10;97213.88;;;12.76;83.64
55032;BME280;40928;51.076;7.950;2022-07-03T03:45:35;97206.88;;;12.75;83.53
55032;BME280;40928;51.076;7.950;2022-07-03T03:48:01;97206.88;;;12.75;83.93
55032;BME280;40928;51.076;7.950;2022-07-03T03:50:26;97209.50;;;12.70;84.15
55032;BME280;40928;51.076;7.950;2022-07-03T03:52:52;97211.59;;;12.68;84.32
55032;BME280;40928;51.076;7.950;2022-07-03T03:55:18;97220.78;;;12.72;84.30
55032;BME280;40928;51.076;7.950;2022-07-03T03:57:43;97224.25;;;12.72;84.01
55032;BME280;40928;51.076;7.950;2022-07-03T04:00:09;97227.28;;;12.76;84.33
55032;BME280;40928;51.076;7.950;2022-07-03T04:02:38;97221.38;;;12.79;84.16
55032;BME280;40928;51.076;7.950;2022-07-03T04:05:04;97225.47;;;12.82;84.32
55032;BME280;40928;51.076;7.950;2022-07-03T04:07:30;97223.66;;;12.87;83.78
55032;BME280;40928;51.076;7.950;2022-07-03T04:09:56;97229.59;;;12.89;83.67
55032;BME280;40928;51.076;7.950;2022-07-03T04:12:21;97226.16;;;12.94;83.43
55032;BME280;40928;51.076;7.950;2022-07-03T04:14:47;97221.59;;;12.94;83.51
55032;BME280;40928;51.076;7.950;2022-07-03T04:17:12;97231.81;;;12.98;83.29
55032;BME280;40928;51.076;7.950;2022-07-03T04:19:39;97228.38;;;13.02;83.56
55032;BME280;40928;51.076;7.950;2022-07-03T04:22:04;97213.72;;;13.10;83.48
55032;BME280;40928;51.076;7.950;2022-07-03T04:24:35;97214.84;;;13.14;83.21
55032;BME280;40928;51.076;7.950;2022-07-03T04:27:00;97217.84;;;13.18;83.12
55032;BME280;40928;51.076;7.950;2022-07-03T04:29:26;97227.84;;;13.22;83.07
55032;BME280;40928;51.076;7.950;2022-07-03T04:31:51;97225.69;;;13.24;83.28
55032;BME280;40928;51.076;7.950;2022-07-03T04:34:17;97227.31;;;13.25;83.37
55032;BME280;40928;51.076;7.950;2022-07-03T04:36:42;97225.19;;;13.28;83.22
55032;BME280;40928;51.076;7.950;2022-07-03T04:39:08;97227.06;;;13.27;83.32
55032;BME280;40928;51.076;7.950;2022-07-03T04:41:33;97233.81;;;13.30;83.07
55032;BME280;40928;51.076;7.950;2022-07-03T04:43:59;97233.81;;;13.30;83.61
55032;BME280;40928;51.076;7.950;2022-07-03T04:46:24;97234.94;;;13.34;83.47
55032;BME280;40928;51.076;7.950;2022-07-03T04:48:50;97236.63;;;13.40;83.52
55032;BME280;40928;51.076;7.950;2022-07-03T04:51:15;97231.81;;;13.42;83.49
55032;BME280;40928;51.076;7.950;2022-07-03T04:53:41;97234.56;;;13.47;83.30
55032;BME280;40928;51.076;7.950;2022-07-03T04:56:06;97239.16;;;13.52;83.36
55032;BME280;40928;51.076;7.950;2022-07-03T04:58:32;97237.09;;;13.59;83.18
55032;BME280;40928;51.076;7.950;2022-07-03T05:00:58;97229.66;;;13.66;83.15
55032;BME280;40928;51.076;7.950;2022-07-03T05:03:23;97234.31;;;13.76;82.79
55032;BME280;40928;51.076;7.950;2022-07-03T05:05:49;97234.38;;;13.81;82.96
55032;BME280;40928;51.076;7.950;2022-07-03T05:08:14;97234.94;;;13.89;82.66
55032;BME280;40928;51.076;7.950;2022-07-03T05:10:40;97241.50;;;13.98;82.91
55032;BME280;40928;51.076;7.950;2022-07-03T05:13:05;97233.78;;;14.07;83.02
55032;BME280;40928;51.076;7.950;2022-07-03T05:15:31;97232.50;;;14.14;83.00
55032;BME280;40928;51.076;7.950;2022-07-03T05:17:57;97244.09;;;14.20;83.16
55032;BME280;40928;51.076;7.950;2022-07-03T05:20:22;97238.50;;;14.27;82.67
55032;BME280;40928;51.076;7.950;2022-07-03T05:23:02;97241.75;;;14.34;82.52
55032;BME280;40928;51.076;7.950;2022-07-03T05:25:30;97245.59;;;14.43;82.55
55032;BME280;40928;51.076;7.950;2022-07-03T05:27:57;97244.31;;;14.51;82.50
55032;BME280;40928;51.076;7.950;2022-07-03T05:30:23;97251.63;;;14.61;82.49
55032;BME280;40928;51.076;7.950;2022-07-03T05:32:49;97249.81;;;14.72;82.52
55032;BME280;40928;51.076;7.950;2022-07-03T05:35:15;97258.22;;;14.81;82.17
55032;BME280;40928;51.076;7.950;2022-07-03T05:37:42;97256.91;;;14.88;81.45
55032;BME280;40928;51.076;7.950;2022-07-03T05:40:08;97249.16;;;14.97;81.25
55032;BME280;40928;51.076;7.950;2022-07-03T05:42:34;97259.97;;;15.07;80.61
55032;BME280;40928;51.076;7.950;2022-07-03T05:45:00;97258.13;;;15.18;80.33
55032;BME280;40928;51.076;7.950;2022-07-03T05:47:26;97251.72;;;15.30;80.11
55032;BME280;40928;51.076;7.950;2022-07-03T05:49:53;97243.41;;;15.42;79.27
55032;BME280;40928;51.076;7.950;2022-07-03T05:52:18;97242.38;;;15.53;78.88
55032;BME280;40928;51.076;7.950;2022-07-03T05:54:44;97238.91;;;15.63;78.58
55032;BME280;40928;51.076;7.950;2022-07-03T05:57:09;97242.16;;;15.75;78.21
55032;BME280;40928;51.076;7.950;2022-07-03T05:59:35;97242.19;;;15.86;77.42
55032;BME280;40928;51.076;7.950;2022-07-03T06:02:00;97242.47;;;15.94;76.82
55032;BME280;40928;51.076;7.950;2022-07-03T06:04:26;97257.81;;;16.04;76.10
55032;BME280;40928;51.076;7.950;2022-07-03T06:06:52;97252.72;;;16.13;75.83
55032;BME280;40928;51.076;7.950;2022-07-03T06:09:17;97248.94;;;16.24;75.64
55032;BME280;40928;51.076;7.950;2022-07-03T06:11:43;97253.22;;;16.36;75.69
55032;BME280;40928;51.076;7.950;2022-07-03T06:14:09;97251.34;;;16.47;75.25
55032;BME280;40928;51.076;7.950;2022-07-03T06:16:34;97249.44;;;16.52;74.99
55032;BME280;40928;51.076;7.950;2022-07-03T06:19:00;97254.03;;;16.67;75.13
55032;BME280;40928;51.076;7.950;2022-07-03T06:21:25;97254.53;;;16.74;74.89
55032;BME280;40928;51.076;7.950;2022-07-03T06:23:51;97259.38;;;16.83;74.83
55032;BME280;40928;51.076;7.950;2022-07-03T06:26:16;97266.63;;;16.93;74.99
55032;BME280;40928;51.076;7.950;2022-07-03T06:28:45;97269.06;;;17.04;74.64
55032;BME280;40928;51.076;7.950;2022-07-03T06:31:11;97266.59;;;17.18;74.42
55032;BME280;40928;51.076;7.950;2022-07-03T06:33:36;97267.59;;;17.33;74.01
55032;BME280;40928;51.076;7.950;2022-07-03T06:36:02;97263.22;;;17.47;73.66
55032;BME280;40928;51.076;7.950;2022-07-03T06:38:27;97273.91;;;17.68;73.67
55032;BME280;40928;51.076;7.950;2022-07-03T06:40:53;97268.41;;;17.84;73.59
55032;BME280;40928;51.076;7.950;2022-07-03T06:43:18;97275.38;;;18.00;72.88
55032;BME280;40928;51.076;7.950;2022-07-03T06:45:44;97270.94;;;18.15;72.24
55032;BME280;40928;51.076;7.950;2022-07-03T06:48:09;97271.63;;;18.31;71.56
55032;BME280;40928;51.076;7.950;2022-07-03T06:50:35;97271.25;;;18.42;66.75
55032;BME280;40928;51.076;7.950;2022-07-03T06:53:01;97261.75;;;18.45;67.39
55032;BME280;40928;51.076;7.950;2022-07-03T06:55:27;97266.78;;;18.57;66.48
55032;BME280;40928;51.076;7.950;2022-07-03T06:57:52;97265.44;;;18.60;64.67
55032;BME280;40928;51.076;7.950;2022-07-03T07:00:18;97271.31;;;18.67;63.44
55032;BME280;40928;51.076;7.950;2022-07-03T07:02:45;97264.47;;;18.75;61.82
55032;BME280;40928;51.076;7.950;2022-07-03T07:05:10;97268.44;;;18.82;61.92
55032;BME280;40928;51.076;7.950;2022-07-03T07:07:36;97267.53;;;18.92;60.83
55032;BME280;40928;51.076;7.950;2022-07-03T07:10:02;97265.81;;;19.01;59.56
55032;BME280;40928;51.076;7.950;2022-07-03T07:12:28;97264.75;;;19.02;59.67
55032;BME280;40928;51.076;7.950;2022-07-03T07:14:53;97266.31;;;19.09;60.17
55032;BME280;40928;51.076;7.950;2022-07-03T07:17:23;97268.34;;;19.17;59.50
55032;BME280;40928;51.076;7.950;2022-07-03T07:19:57;97264.81;;;19.22;58.94
55032;BME280;40928;51.076;7.950;2022-07-03T07:22:23;97262.84;;;19.27;58.72
55032;BME280;40928;51.076;7.950;2022-07-03T07:24:51;97259.44;;;19.41;58.96
55032;BME280;40928;51.076;7.950;2022-07-03T07:27:16;97270.63;;;19.53;57.98
55032;BME280;40928;51.076;7.950;2022-07-03T07:29:42;97274.28;;;19.62;57.08
55032;BME280;40928;51.076;7.950;2022-07-03T07:32:07;97271.16;;;19.74;56.03
55032;BME280;40928;51.076;7.950;2022-07-03T07:34:33;97274.72;;;19.94;54.88
55032;BME280;40928;51.076;7.950;2022-07-03T07:36:58;97274.34;;;20.01;54.86
55032;BME280;40928;51.076;7.950;2022-07-03T07:39:24;97274.47;;;20.10;55.23
55032;BME280;40928;51.076;7.950;2022-07-03T07:41:49;97274.91;;;20.17;54.67
55032;BME280;40928;51.076;7.950;2022-07-03T07:44:15;97273.66;;;20.28;52.54
55032;BME280;40928;51.076;7.950;2022-07-03T07:46:40;97275.47;;;20.33;52.05
55032;BME280;40928;51.076;7.950;2022-07-03T07:49:06;97276.19;;;20.38;50.76
55032;BME280;40928;51.076;7.950;2022-07-03T07:51:31;97278.00;;;20.43;51.41
55032;BME280;40928;51.076;7.950;2022-07-03T07:53:57;97277.53;;;20.55;51.12
55032;BME280;40928;51.076;7.950;2022-07-03T07:56:24;97274.13;;;20.63;50.68
55032;BME280;40928;51.076;7.950;2022-07-03T07:58:50;97274.88;;;20.69;50.77
55032;BME280;40928;51.076;7.950;2022-07-03T08:01:17;97274.72;;;20.79;50.02
55032;BME280;40928;51.076;7.950;2022-07-03T08:04:02;97273.59;;;20.80;50.62
55032;BME280;40928;51.076;7.950;2022-07-03T08:06:46;97273.81;;;20.84;48.10
55032;BME280;40928;51.076;7.950;2022-07-03T08:09:12;97271.50;;;20.91;48.94
55032;BME280;40928;51.076;7.950;2022-07-03T08:11:37;97268.50;;;20.93;47.67
55032;BME280;40928;51.076;7.950;2022-07-03T08:14:03;97262.56;;;20.91;48.35
55032;BME280;40928;51.076;7.950;2022-07-03T08:16:31;97268.09;;;20.99;48.86
55032;BME280;40928;51.076;7.950;2022-07-03T08:18:56;97273.81;;;21.12;48.99
55032;BME280;40928;51.076;7.950;2022-07-03T08:21:22;97270.81;;;21.13;48.12
55032;BME280;40928;51.076;7.950;2022-07-03T08:23:47;97266.88;;;21.20;48.04
55032;BME280;40928;51.076;7.950;2022-07-03T08:26:13;97271.63;;;21.28;48.06
55032;BME280;40928;51.076;7.950;2022-07-03T08:28:39;97274.63;;;21.40;47.94
55032;BME280;40928;51.076;7.950;2022-07-03T08:31:04;97285.25;;;21.51;46.32
55032;BME280;40928;51.076;7.950;2022-07-03T08:33:30;97273.00;;;21.53;46.77
55032;BME280;40928;51.076;7.950;2022-07-03T08:35:55;97275.19;;;21.65;46.90
55032;BME280;40928;51.076;7.950;2022-07-03T08:38:27;97271.69;;;21.79;47.32
55032;BME280;40928;51.076;7.950;2022-07-03T08:40:53;97269.31;;;21.86;46.73
55032;BME280;40928;51.076;7.950;2022-07-03T08:43:19;97266.78;;;21.89;47.28
55032;BME280;40928;51.076;7.950;2022-07-03T08:45:46;97267.78;;;21.94;46.44
55032;BME280;40928;51.076;7.950;2022-07-03T08:48:12;97264.34;;;22.02;47.05
55032;BME280;40928;51.076;7.950;2022-07-03T08:50:39;97269.53;;;22.12;46.65
55032;BME280;40928;51.076;7.950;2022-07-03T08:53:06;97271.06;;;22.27;46.62
55032;BME280;40928;51.076;7.950;2022-07-03T08:55:32;97282.44;;;22.43;46.57
55032;BME280;40928;51.076;7.950;2022-07-03T08:57:58;97268.56;;;22.54;45.97
55032;BME280;40928;51.076;7.950;2022-07-03T09:00:26;97270.50;;;22.53;45.79
55032;BME280;40928;51.076;7.950;2022-07-03T09:02:52;97275.56;;;22.46;45.83
55032;BME280;40928;51.076;7.950;2022-07-03T09:05:17;97276.66;;;22.45;45.15
55032;BME280;40928;51.076;7.950;2022-07-03T09:07:45;97273.44;;;22.43;45.49
55032;BME280;40928;51.076;7.950;2022-07-03T09:10:16;97277.66;;;22.26;45.88
55032;BME280;40928;51.076;7.950;2022-07-03T09:12:47;97270.34;;;22.13;45.33
55032;BME280;40928;51.076;7.950;2022-07-03T09:15:12;97269.78;;;22.02;46.33
55032;BME280;40928;51.076;7.950;2022-07-03T09:17:38;97273.91;;;21.99;46.35
55032;BME280;40928;51.076;7.950;2022-07-03T09:20:06;97281.53;;;22.11;45.55
55032;BME280;40928;51.076;7.950;2022-07-03T09:22:35;97274.78;;;22.31;44.71
55032;BME280;40928;51.076;7.950;2022-07-03T09:25:12;97282.31;;;22.48;44.84
55032;BME280;40928;51.076;7.950;2022-07-03T09:27:59;97270.22;;;22.63;43.33
55032;BME280;40928;51.076;7.950;2022-07-03T09:30:25;97275.59;;;22.77;43.52
55032;BME280;40928;51.076;7.950;2022-07-03T09:32:52;97270.31;;;22.81;44.02
55032;BME280;40928;51.076;7.950;2022-07-03T09:35:25;97273.44;;;22.65;42.19
55032;BME280;40928;51.076;7.950;2022-07-03T09:40:20;97268.72;;;22.80;43.20
55032;BME280;40928;51.076;7.950;2022-07-03T09:43:05;97271.31;;;22.85;42.98
55032;BME280;40928;51.076;7.950;2022-07-03T09:51:20;97277.50;;;22.77;42.84
55032;BME280;40928;51.076;7.950;2022-07-03T09:53:51;97278.59;;;22.76;43.75
55032;BME280;40928;51.076;7.950;2022-07-03T09:56:22;97276.13;;;22.88;42.75
55032;BME280;40928;51.076;7.950;2022-07-03T10:01:29;97280.97;;;23.32;41.71
55032;BME280;40928;51.076;7.950;2022-07-03T10:04:11;97280.81;;;23.37;41.81
55032;BME280;40928;51.076;7.950;2022-07-03T10:09:20;97284.09;;;23.16;42.12
55032;BME280;40928;51.076;7.950;2022-07-03T10:11:47;97274.31;;;23.15;42.56
55032;BME280;40928;51.076;7.950;2022-07-03T10:14:15;97269.22;;;23.22;41.69
55032;BME280;40928;51.076;7.950;2022-07-03T10:16:41;97279.97;;;23.27;42.41
55032;BME280;40928;51.076;7.950;2022-07-03T10:19:13;97279.06;;;23.41;43.08
55032;BME280;40928;51.076;7.950;2022-07-03T10:21:39;97274.59;;;23.45;42.61
55032;BME280;40928;51.076;7.950;2022-07-03T10:24:07;97276.22;;;23.55;41.60
55032;BME280;40928;51.076;7.950;2022-07-03T10:26:33;97280.88;;;23.72;41.10
55032;BME280;40928;51.076;7.950;2022-07-03T10:29:00;97276.22;;;23.64;39.03
55032;BME280;40928;51.076;7.950;2022-07-03T10:31:27;97277.88;;;23.82;39.78
55032;BME280;40928;51.076;7.950;2022-07-03T10:33:54;97277.88;;;24.09;38.75
55032;BME280;40928;51.076;7.950;2022-07-03T10:36:20;97268.72;;;24.22;38.37
55032;BME280;40928;51.076;7.950;2022-07-03T10:38:48;97275.31;;;24.21;38.58
55032;BME280;40928;51.076;7.950;2022-07-03T10:41:39;97274.16;;;24.31;37.68
55032;BME280;40928;51.076;7.950;2022-07-03T10:44:24;97281.41;;;24.44;38.41
55032;BME280;40928;51.076;7.950;2022-07-03T10:50:22;97283.88;;;24.93;36.73
55032;BME280;40928;51.076;7.950;2022-07-03T10:52:48;97275.97;;;24.92;35.54
55032;BME280;40928;51.076;7.950;2022-07-03T10:55:15;97278.47;;;25.15;35.53
55032;BME280;40928;51.076;7.950;2022-07-03T10:57:43;97279.78;;;25.38;35.14
55032;BME280;40928;51.076;7.950;2022-07-03T11:00:14;97273.78;;;25.54;34.14
55032;BME280;40928;51.076;7.950;2022-07-03T11:02:49;97265.81;;;25.40;33.39
55032;BME280;40928;51.076;7.950;2022-07-03T11:05:16;97273.19;;;25.39;33.78
55032;BME280;40928;51.076;7.950;2022-07-03T11:07:44;97269.72;;;25.60;33.56
55032;BME280;40928;51.076;7.950;2022-07-03T11:10:28;97273.50;;;25.77;33.82
55032;BME280;40928;51.076;7.950;2022-07-03T11:13:06;97264.63;;;26.01;32.88
55032;BME280;40928;51.076;7.950;2022-07-03T11:25:46;97245.72;;;25.87;32.68
55032;BME280;40928;51.076;7.950;2022-07-03T11:36:10;97256.47;;;25.50;32.44
55032;BME280;40928;51.076;7.950;2022-07-03T11:38:36;97245.66;;;25.53;32.66
55032;BME280;40928;51.076;7.950;2022-07-03T11:41:06;97246.59;;;25.58;32.96
55032;BME280;40928;51.076;7.950;2022-07-03T11:43:32;97241.72;;;25.42;32.13
55032;BME280;40928;51.076;7.950;2022-07-03T11:45:57;97246.59;;;25.58;32.01
55032;BME280;40928;51.076;7.950;2022-07-03T11:48:24;97248.59;;;25.69;33.27
55032;BME280;40928;51.076;7.950;2022-07-03T11:50:51;97252.63;;;25.72;33.45
55032;BME280;40928;51.076;7.950;2022-07-03T11:53:23;97250.94;;;25.80;32.84
55032;BME280;40928;51.076;7.950;2022-07-03T11:55:51;97248.53;;;25.78;32.82
55032;BME280;40928;51.076;7.950;2022-07-03T11:58:16;97254.06;;;25.69;33.86
55032;BME280;40928;51.076;7.950;2022-07-03T12:00:42;97254.63;;;25.84;32.88
55032;BME280;40928;51.076;7.950;2022-07-03T12:03:09;97245.00;;;25.99;32.48
55032;BME280;40928;51.076;7.950;2022-07-03T12:05:34;97240.06;;;26.13;32.98
55032;BME280;40928;51.076;7.950;2022-07-03T12:08:04;97246.94;;;26.20;32.01
55032;BME280;40928;51.076;7.950;2022-07-03T12:10:40;97243.94;;;26.12;32.72
55032;BME280;40928;51.076;7.950;2022-07-03T12:13:22;97243.91;;;26.34;32.56
55032;BME280;40928;51.076;7.950;2022-07-03T12:15:48;97246.88;;;26.07;31.37
55032;BME280;40928;51.076;7.950;2022-07-03T12:18:15;97239.41;;;25.74;32.70
55032;BME280;40928;51.076;7.950;2022-07-03T12:20:41;97244.34;;;25.81;33.06
55032;BME280;40928;51.076;7.950;2022-07-03T12:23:06;97242.66;;;25.89;32.91
55032;BME280;40928;51.076;7.950;2022-07-03T12:25:38;97242.41;;;25.81;33.37
55032;BME280;40928;51.076;7.950;2022-07-03T12:28:04;97238.72;;;25.98;33.53
55032;BME280;40928;51.076;7.950;2022-07-03T12:30:30;97244.53;;;26.18;33.53
55032;BME280;40928;51.076;7.950;2022-07-03T12:32:56;97238.41;;;26.34;33.33
55032;BME280;40928;51.076;7.950;2022-07-03T12:35:25;97246.44;;;26.39;32.77
55032;BME280;40928;51.076;7.950;2022-07-03T12:37:52;97234.94;;;26.45;31.89
55032;BME280;40928;51.076;7.950;2022-07-03T12:40:18;97232.31;;;26.49;32.56
55032;BME280;40928;51.076;7.950;2022-07-03T12:42:48;97218.06;;;26.56;32.30
55032;BME280;40928;51.076;7.950;2022-07-03T12:45:18;97220.59;;;26.73;32.60
55032;BME280;40928;51.076;7.950;2022-07-03T12:47:45;97207.03;;;26.77;32.68
55032;BME280;40928;51.076;7.950;2022-07-03T12:50:17;97213.09;;;26.70;33.14
55032;BME280;40928;51.076;7.950;2022-07-03T12:52:56;97203.63;;;26.80;33.72
55032;BME280;40928;51.076;7.950;2022-07-03T12:55:27;97211.38;;;26.78;33.30
55032;BME280;40928;51.076;7.950;2022-07-03T13:00:54;97212.56;;;26.89;33.25
55032;BME280;40928;51.076;7.950;2022-07-03T13:03:27;97212.44;;;26.86;33.29
55032;BME280;40928;51.076;7.950;2022-07-03T13:05:52;97199.97;;;26.76;32.78
55032;BME280;40928;51.076;7.950;2022-07-03T13:08:18;97206.13;;;26.73;33.39
55032;BME280;40928;51.076;7.950;2022-07-03T13:10:44;97191.38;;;26.53;32.98
55032;BME280;40928;51.076;7.950;2022-07-03T13:13:19;97193.66;;;26.51;34.42
55032;BME280;40928;51.076;7.950;2022-07-03T13:15:44;97206.16;;;26.39;33.25
55032;BME280;40928;51.076;7.950;2022-07-03T13:18:11;97195.44;;;26.34;33.83
55032;BME280;40928;51.076;7.950;2022-07-03T13:20:37;97193.16;;;26.36;33.55
55032;BME280;40928;51.076;7.950;2022-07-03T13:23:03;97187.59;;;26.45;34.06
55032;BME280;40928;51.076;7.950;2022-07-03T13:25:31;97195.47;;;26.59;34.61
55032;BME280;40928;51.076;7.950;2022-07-03T13:30:29;97195.66;;;26.41;32.57
55032;BME280;40928;51.076;7.950;2022-07-03T13:32:55;97191.88;;;26.34;33.58
55032;BME280;40928;51.076;7.950;2022-07-03T13:35:20;97186.88;;;26.36;34.20
55032;BME280;40928;51.076;7.950;2022-07-03T13:37:46;97183.69;;;26.34;33.15
55032;BME280;40928;51.076;7.950;2022-07-03T13:40:11;97193.56;;;26.26;33.92
55032;BME280;40928;51.076;7.950;2022-07-03T13:42:37;97185.16;;;26.31;33.73
55032;BME280;40928;51.076;7.950;2022-07-03T13:45:03;97187.09;;;26.31;34.84
55032;BME280;40928;51.076;7.950;2022-07-03T13:47:28;97177.41;;;26.33;35.03
55032;BME280;40928;51.076;7.950;2022-07-03T13:49:56;97175.69;;;26.28;34.77
55032;BME280;40928;51.076;7.950;2022-07-03T13:52:22;97178.63;;;26.23;34.73
55032;BME280;40928;51.076;7.950;2022-07-03T13:54:47;97179.72;;;26.10;34.56
55032;BME280;40928;51.076;7.950;2022-07-03T13:57:13;97176.78;;;25.94;34.80
55032;BME280;40928;51.076;7.950;2022-07-03T13:59:39;97178.91;;;26.09;35.17
55032;BME280;40928;51.076;7.950;2022-07-03T14:02:05;97180.00;;;25.96;35.26
55032;BME280;40928;51.076;7.950;2022-07-03T14:04:30;97190.75;;;26.01;35.70
55032;BME280;40928;51.076;7.950;2022-07-03T14:06:57;97195.91;;;25.81;35.74
55032;BME280;40928;51.076;7.950;2022-07-03T14:09:23;97184.78;;;25.65;36.03
55032;BME280;40928;51.076;7.950;2022-07-03T14:11:48;97187.72;;;25.60;36.24